sensor_id;sensor_type;location;lat;lon;timestamp;P1;durP1;ratioP1;P2;durP2;ratioP2
33148;SDS011;19506;51.040;3.856;2023-01-13T00:01:54;19.42;;;7.40;;
33148;SDS011;19506;51.040;3.856;2023-01-13T00:04:20;16.42;;;6.80;;
33148;SDS011;19506;51.040;3.856;2023-01-13T00:06:46;18.70;;;6.80;;
33148;SDS011;19506;51.040;3.856;2023-01-13T00:09:12;15.43;;;6.65;;
33148;SDS011;19506;51.040;3.856;2023-01-13T00:11:38;12.50;;;6.60;;
33148;SDS011;19506;51.040;3.856;2023-01-13T00:14:04;13.48;;;6.10;;
33148;SDS011;19506;51.040;3.856;2023-01-13T00:16:30;17.75;;;7.68;;
33148;SDS011;19506;51.040;3.856;2023-01-13T00:18:56;14.27;;;6.95;;
33148;SDS011;19506;51.040;3.856;2023-01-13T00:21:22;15.15;;;6.43;;
33148;SDS011;19506;51.040;3.856;2023-01-13T00:23:50;15.20;;;6.55;;
33148;SDS011;19506;51.040;3.856;2023-01-13T00:26:17;16.17;;;8.05;;
33148;SDS011;19506;51.040;3.856;2023-01-13T00:28:43;15.68;;;6.78;;
33148;SDS011;19506;51.040;3.856;2023-01-13T00:31:19;13.20;;;6.18;;
33148;SDS011;19506;51.040;3.856;2023-01-13T00:33:45;12.45;;;5.90;;
33148;SDS011;19506;51.040;3.856;2023-01-13T00:36:13;13.70;;;6.53;;
33148;SDS011;19506;51.040;3.856;2023-01-13T00:38:39;12.20;;;5.78;;
33148;SDS011;19506;51.040;3.856;2023-01-13T00:41:07;13.27;;;5.95;;
33148;SDS011;19506;51.040;3.856;2023-01-13T00:43:34;11.90;;;5.93;;
33148;SDS011;19506;51.040;3.856;2023-01-13T00:46:00;16.05;;;6.22;;
33148;SDS011;19506;51.040;3.856;2023-01-13T00:48:27;14.40;;;6.05;;
33148;SDS011;19506;51.040;3.856;2023-01-13T00:50:55;14.73;;;6.30;;
33148;SDS011;19506;51.040;3.856;2023-01-13T00:53:21;13.13;;;6.00;;
33148;SDS011;19506;51.040;3.856;2023-01-13T00:55:47;14.73;;;6.18;;
33148;SDS011;19506;51.040;3.856;2023-01-13T00:58:13;12.98;;;5.95;;
33148;SDS011;19506;51.040;3.856;2023-01-13T01:00:39;11.82;;;5.40;;
33148;SDS011;19506;51.040;3.856;2023-01-13T01:03:06;12.73;;;4.70;;
33148;SDS011;19506;51.040;3.856;2023-01-13T01:05:36;12.95;;;5.40;;
33148;SDS011;19506;51.040;3.856;2023-01-13T01:08:02;13.70;;;5.93;;
33148;SDS011;19506;51.040;3.856;2023-01-13T01:10:28;11.73;;;4.90;;
33148;SDS011;19506;51.040;3.856;2023-01-13T01:12:54;17.50;;;6.07;;
33148;SDS011;19506;51.040;3.856;2023-01-13T01:15:20;16.65;;;5.97;;
33148;SDS011;19506;51.040;3.856;2023-01-13T01:17:46;14.88;;;5.53;;
33148;SDS011;19506;51.040;3.856;2023-01-13T01:20:12;11.07;;;4.97;;
33148;SDS011;19506;51.040;3.856;2023-01-13T01:22:38;15.60;;;6.50;;
33148;SDS011;19506;51.040;3.856;2023-01-13T01:25:04;10.82;;;4.78;;
33148;SDS011;19506;51.040;3.856;2023-01-13T01:27:30;14.07;;;6.00;;
33148;SDS011;19506;51.040;3.856;2023-01-13T01:29:56;12.15;;;5.03;;
33148;SDS011;19506;51.040;3.856;2023-01-13T01:32:22;12.07;;;5.18;;
33148;SDS011;19506;51.040;3.856;2023-01-13T01:34:49;9.73;;;5.80;;
33148;SDS011;19506;51.040;3.856;2023-01-13T01:37:15;12.15;;;5.43;;
33148;SDS011;19506;51.040;3.856;2023-01-13T01:39:41;11.95;;;4.80;;
33148;SDS011;19506;51.040;3.856;2023-01-13T01:42:12;14.70;;;4.72;;
33148;SDS011;19506;51.040;3.856;2023-01-13T01:44:58;9.20;;;4.65;;
33148;SDS011;19506;51.040;3.856;2023-01-13T01:47:25;12.13;;;5.10;;
33148;SDS011;19506;51.040;3.856;2023-01-13T01:49:51;11.43;;;4.85;;
33148;SDS011;19506;51.040;3.856;2023-01-13T01:52:19;10.68;;;5.10;;
33148;SDS011;19506;51.040;3.856;2023-01-13T01:57:51;12.93;;;4.80;;
33148;SDS011;19506;51.040;3.856;2023-01-13T02:00:18;12.95;;;4.60;;
33148;SDS011;19506;51.040;3.856;2023-01-13T02:02:45;12.20;;;4.88;;
33148;SDS011;19506;51.040;3.856;2023-01-13T02:05:12;12.57;;;4.80;;
33148;SDS011;19506;51.040;3.856;2023-01-13T02:07:39;12.02;;;4.30;;
33148;SDS011;19506;51.040;3.856;2023-01-13T02:10:07;9.18;;;4.70;;
33148;SDS011;19506;51.040;3.856;2023-01-13T02:12:34;10.93;;;5.03;;
33148;SDS011;19506;51.040;3.856;2023-01-13T02:15:10;12.05;;;4.72;;
33148;SDS011;19506;51.040;3.856;2023-01-13T02:30:32;11.50;;;3.80;;
33148;SDS011;19506;51.040;3.856;2023-01-13T02:33:35;10.27;;;4.43;;
33148;SDS011;19506;51.040;3.856;2023-01-13T02:38:33;13.48;;;4.38;;
33148;SDS011;19506;51.040;3.856;2023-01-13T02:41:14;8.90;;;3.67;;
33148;SDS011;19506;51.040;3.856;2023-01-13T02:44:02;7.88;;;4.30;;
33148;SDS011;19506;51.040;3.856;2023-01-13T02:47:18;7.55;;;3.67;;
33148;SDS011;19506;51.040;3.856;2023-01-13T02:49:21;8.38;;;4.10;;
33148;SDS011;19506;51.040;3.856;2023-01-13T02:51:48;10.95;;;3.85;;
33148;SDS011;19506;51.040;3.856;2023-01-13T02:54:23;7.72;;;3.35;;
33148;SDS011;19506;51.040;3.856;2023-01-13T02:56:51;10.50;;;4.00;;
33148;SDS011;19506;51.040;3.856;2023-01-13T02:59:18;7.00;;;3.80;;
33148;SDS011;19506;51.040;3.856;2023-01-13T03:01:45;7.82;;;4.18;;
33148;SDS011;19506;51.040;3.856;2023-01-13T03:04:12;11.20;;;4.47;;
33148;SDS011;19506;51.040;3.856;2023-01-13T03:09:05;8.15;;;3.85;;
33148;SDS011;19506;51.040;3.856;2023-01-13T03:11:38;7.20;;;3.90;;
33148;SDS011;19506;51.040;3.856;2023-01-13T03:14:11;9.18;;;3.75;;
33148;SDS011;19506;51.040;3.856;2023-01-13T03:17:01;8.35;;;3.63;;
33148;SDS011;19506;51.040;3.856;2023-01-13T03:22:19;7.53;;;3.75;;
33148;SDS011;19506;51.040;3.856;2023-01-13T03:24:55;8.73;;;3.72;;
33148;SDS011;19506;51.040;3.856;2023-01-13T03:27:26;7.32;;;3.05;;
33148;SDS011;19506;51.040;3.856;2023-01-13T03:29:58;8.93;;;3.40;;
33148;SDS011;19506;51.040;3.856;2023-01-13T03:35:06;7.47;;;3.30;;
33148;SDS011;19506;51.040;3.856;2023-01-13T03:37:35;9.60;;;3.20;;
33148;SDS011;19506;51.040;3.856;2023-01-13T03:40:04;9.02;;;3.75;;
33148;SDS011;19506;51.040;3.856;2023-01-13T03:42:32;8.70;;;3.85;;
33148;SDS011;19506;51.040;3.856;2023-01-13T03:45:02;11.02;;;3.38;;
33148;SDS011;19506;51.040;3.856;2023-01-13T03:47:30;9.38;;;3.53;;
33148;SDS011;19506;51.040;3.856;2023-01-13T03:52:36;7.95;;;3.20;;
33148;SDS011;19506;51.040;3.856;2023-01-13T03:55:06;7.53;;;3.08;;
33148;SDS011;19506;51.040;3.856;2023-01-13T03:57:35;10.60;;;3.40;;
33148;SDS011;19506;51.040;3.856;2023-01-13T04:00:03;10.13;;;3.38;;
33148;SDS011;19506;51.040;3.856;2023-01-13T04:02:39;8.93;;;2.92;;
33148;SDS011;19506;51.040;3.856;2023-01-13T04:05:07;6.65;;;3.67;;
33148;SDS011;19506;51.040;3.856;2023-01-13T04:07:45;10.40;;;3.47;;
33148;SDS011;19506;51.040;3.856;2023-01-13T04:10:13;5.93;;;3.10;;
33148;SDS011;19506;51.040;3.856;2023-01-13T04:12:43;6.30;;;3.28;;
33148;SDS011;19506;51.040;3.856;2023-01-13T04:15:27;5.20;;;3.13;;
33148;SDS011;19506;51.040;3.856;2023-01-13T04:17:54;8.13;;;3.15;;
33148;SDS011;19506;51.040;3.856;2023-01-13T04:20:26;7.40;;;3.20;;
33148;SDS011;19506;51.040;3.856;2023-01-13T04:22:52;8.07;;;3.05;;
33148;SDS011;19506;51.040;3.856;2023-01-13T04:25:18;7.05;;;2.97;;
33148;SDS011;19506;51.040;3.856;2023-01-13T04:27:44;7.55;;;2.55;;
33148;SDS011;19506;51.040;3.856;2023-01-13T04:30:10;5.85;;;2.47;;
33148;SDS011;19506;51.040;3.856;2023-01-13T04:32:36;6.80;;;3.20;;
33148;SDS011;19506;51.040;3.856;2023-01-13T04:37:28;7.20;;;3.37;;
33148;SDS011;19506;51.040;3.856;2023-01-13T04:39:54;6.78;;;2.72;;
33148;SDS011;19506;51.040;3.856;2023-01-13T04:42:20;10.25;;;3.42;;
33148;SDS011;19506;51.040;3.856;2023-01-13T04:44:46;8.02;;;3.03;;
33148;SDS011;19506;51.040;3.856;2023-01-13T04:47:12;10.60;;;2.45;;
33148;SDS011;19506;51.040;3.856;2023-01-13T04:52:04;6.90;;;3.10;;
33148;SDS011;19506;51.040;3.856;2023-01-13T04:54:31;6.30;;;2.90;;
33148;SDS011;19506;51.040;3.856;2023-01-13T04:59:22;8.03;;;2.50;;
33148;SDS011;19506;51.040;3.856;2023-01-13T05:01:48;5.07;;;2.95;;
33148;SDS011;19506;51.040;3.856;2023-01-13T05:06:41;7.13;;;3.28;;
33148;SDS011;19506;51.040;3.856;2023-01-13T05:09:07;8.23;;;2.58;;
33148;SDS011;19506;51.040;3.856;2023-01-13T05:11:33;4.88;;;2.53;;
33148;SDS011;19506;51.040;3.856;2023-01-13T05:14:17;5.97;;;2.92;;
33148;SDS011;19506;51.040;3.856;2023-01-13T05:17:02;8.20;;;2.30;;
33148;SDS011;19506;51.040;3.856;2023-01-13T05:19:29;4.78;;;2.40;;
33148;SDS011;19506;51.040;3.856;2023-01-13T05:21:55;6.78;;;2.30;;
33148;SDS011;19506;51.040;3.856;2023-01-13T05:24:40;5.40;;;2.55;;
33148;SDS011;19506;51.040;3.856;2023-01-13T05:27:25;5.47;;;2.92;;
33148;SDS011;19506;51.040;3.856;2023-01-13T05:29:51;6.70;;;2.63;;
33148;SDS011;19506;51.040;3.856;2023-01-13T05:32:17;6.18;;;2.70;;
33148;SDS011;19506;51.040;3.856;2023-01-13T05:34:43;10.65;;;3.67;;
33148;SDS011;19506;51.040;3.856;2023-01-13T05:37:09;6.40;;;2.92;;
33148;SDS011;19506;51.040;3.856;2023-01-13T05:39:37;6.13;;;2.80;;
33148;SDS011;19506;51.040;3.856;2023-01-13T05:42:22;4.00;;;2.30;;
33148;SDS011;19506;51.040;3.856;2023-01-13T05:45:06;5.25;;;2.53;;
33148;SDS011;19506;51.040;3.856;2023-01-13T05:47:33;6.13;;;2.78;;
33148;SDS011;19506;51.040;3.856;2023-01-13T05:52:25;8.37;;;3.00;;
33148;SDS011;19506;51.040;3.856;2023-01-13T05:54:51;6.55;;;2.55;;
33148;SDS011;19506;51.040;3.856;2023-01-13T05:57:17;5.47;;;2.30;;
33148;SDS011;19506;51.040;3.856;2023-01-13T05:59:42;5.53;;;2.15;;
33148;SDS011;19506;51.040;3.856;2023-01-13T06:02:08;7.50;;;2.25;;
33148;SDS011;19506;51.040;3.856;2023-01-13T06:04:34;6.97;;;2.50;;
33148;SDS011;19506;51.040;3.856;2023-01-13T15:47:16;27.00;;;7.47;;
33148;SDS011;19506;51.040;3.856;2023-01-13T15:49:43;19.45;;;7.15;;
33148;SDS011;19506;51.040;3.856;2023-01-13T15:52:22;28.02;;;6.22;;
33148;SDS011;19506;51.040;3.856;2023-01-13T15:54:50;17.27;;;6.68;;
33148;SDS011;19506;51.040;3.856;2023-01-13T16:00:40;32.58;;;14.27;;
33148;SDS011;19506;51.040;3.856;2023-01-13T16:05:52;24.05;;;11.50;;
33148;SDS011;19506;51.040;3.856;2023-01-13T16:10:45;43.92;;;13.40;;
33148;SDS011;19506;51.040;3.856;2023-01-13T16:13:11;35.88;;;11.82;;
33148;SDS011;19506;51.040;3.856;2023-01-13T16:15:42;38.05;;;11.95;;
33148;SDS011;19506;51.040;3.856;2023-01-13T16:18:21;25.20;;;11.55;;
33148;SDS011;19506;51.040;3.856;2023-01-13T16:20:50;36.95;;;10.55;;
33148;SDS011;19506;51.040;3.856;2023-01-13T17:39:42;82.40;;;21.70;;
33148;SDS011;19506;51.040;3.856;2023-01-13T17:42:10;85.18;;;20.73;;
33148;SDS011;19506;51.040;3.856;2023-01-13T17:44:36;89.35;;;17.48;;
33148;SDS011;19506;51.040;3.856;2023-01-13T17:47:02;70.85;;;18.08;;
33148;SDS011;19506;51.040;3.856;2023-01-13T17:49:28;77.35;;;18.80;;
33148;SDS011;19506;51.040;3.856;2023-01-13T17:51:53;79.55;;;17.90;;
33148;SDS011;19506;51.040;3.856;2023-01-13T17:54:19;60.78;;;15.82;;
33148;SDS011;19506;51.040;3.856;2023-01-13T17:56:45;67.53;;;15.95;;
33148;SDS011;19506;51.040;3.856;2023-01-13T17:59:11;76.93;;;17.88;;
33148;SDS011;19506;51.040;3.856;2023-01-13T18:01:38;62.47;;;14.45;;
33148;SDS011;19506;51.040;3.856;2023-01-13T18:04:04;65.22;;;16.20;;
33148;SDS011;19506;51.040;3.856;2023-01-13T18:06:31;70.90;;;14.88;;
33148;SDS011;19506;51.040;3.856;2023-01-13T18:08:57;58.45;;;14.80;;
33148;SDS011;19506;51.040;3.856;2023-01-13T18:11:24;60.63;;;13.55;;
33148;SDS011;19506;51.040;3.856;2023-01-13T18:13:51;80.63;;;15.20;;
33148;SDS011;19506;51.040;3.856;2023-01-13T18:16:22;63.92;;;14.73;;
33148;SDS011;19506;51.040;3.856;2023-01-13T18:18:49;49.05;;;13.80;;
33148;SDS011;19506;51.040;3.856;2023-01-13T18:21:20;53.95;;;12.98;;
33148;SDS011;19506;51.040;3.856;2023-01-13T18:24:12;53.00;;;12.65;;
33148;SDS011;19506;51.040;3.856;2023-01-13T18:26:58;49.00;;;11.63;;
33148;SDS011;19506;51.040;3.856;2023-01-13T18:29:42;55.05;;;12.48;;
33148;SDS011;19506;51.040;3.856;2023-01-13T18:32:11;45.70;;;12.20;;
33148;SDS011;19506;51.040;3.856;2023-01-13T18:34:37;50.78;;;11.00;;
33148;SDS011;19506;51.040;3.856;2023-01-13T18:37:05;53.30;;;12.48;;
33148;SDS011;19506;51.040;3.856;2023-01-13T18:39:31;43.33;;;11.45;;
33148;SDS011;19506;51.040;3.856;2023-01-13T18:41:57;41.28;;;11.20;;
33148;SDS011;19506;51.040;3.856;2023-01-13T18:44:41;40.05;;;10.52;;
33148;SDS011;19506;51.040;3.856;2023-01-13T18:47:07;42.17;;;12.20;;
33148;SDS011;19506;51.040;3.856;2023-01-13T18:49:33;51.78;;;10.98;;
33148;SDS011;19506;51.040;3.856;2023-01-13T18:51:58;47.05;;;12.02;;
33148;SDS011;19506;51.040;3.856;2023-01-13T18:54:24;38.00;;;11.15;;
33148;SDS011;19506;51.040;3.856;2023-01-13T18:56:50;39.22;;;10.02;;
33148;SDS011;19506;51.040;3.856;2023-01-13T18:59:15;42.60;;;11.05;;
33148;SDS011;19506;51.040;3.856;2023-01-13T19:01:41;36.10;;;10.23;;
33148;SDS011;19506;51.040;3.856;2023-01-13T19:04:09;31.75;;;9.32;;
33148;SDS011;19506;51.040;3.856;2023-01-13T19:06:42;30.77;;;9.27;;
33148;SDS011;19506;51.040;3.856;2023-01-13T19:09:15;43.22;;;9.65;;
33148;SDS011;19506;51.040;3.856;2023-01-13T19:11:46;38.05;;;10.00;;
33148;SDS011;19506;51.040;3.856;2023-01-13T19:14:13;58.40;;;13.55;;
33148;SDS011;19506;51.040;3.856;2023-01-13T19:16:58;51.20;;;13.05;;
33148;SDS011;19506;51.040;3.856;2023-01-13T19:19:27;40.72;;;13.70;;
33148;SDS011;19506;51.040;3.856;2023-01-13T19:21:53;43.17;;;13.70;;
33148;SDS011;19506;51.040;3.856;2023-01-13T19:24:20;44.10;;;14.60;;
33148;SDS011;19506;51.040;3.856;2023-01-13T19:26:46;47.17;;;18.27;;
33148;SDS011;19506;51.040;3.856;2023-01-13T19:29:13;44.17;;;14.45;;
33148;SDS011;19506;51.040;3.856;2023-01-13T19:31:39;45.47;;;14.43;;
33148;SDS011;19506;51.040;3.856;2023-01-13T19:34:04;49.90;;;14.90;;
33148;SDS011;19506;51.040;3.856;2023-01-13T19:36:30;35.30;;;14.95;;
33148;SDS011;19506;51.040;3.856;2023-01-13T19:38:56;41.15;;;13.82;;
33148;SDS011;19506;51.040;3.856;2023-01-13T19:41:23;35.40;;;12.80;;
33148;SDS011;19506;51.040;3.856;2023-01-13T19:44:12;34.47;;;13.35;;
33148;SDS011;19506;51.040;3.856;2023-01-13T19:46:56;38.45;;;12.80;;
33148;SDS011;19506;51.040;3.856;2023-01-13T19:49:22;35.15;;;13.15;;
33148;SDS011;19506;51.040;3.856;2023-01-13T19:51:49;34.13;;;12.07;;
33148;SDS011;19506;51.040;3.856;2023-01-13T19:54:15;40.40;;;12.57;;
33148;SDS011;19506;51.040;3.856;2023-01-13T19:56:41;34.60;;;12.48;;
33148;SDS011;19506;51.040;3.856;2023-01-13T19:59:08;39.30;;;12.27;;
33148;SDS011;19506;51.040;3.856;2023-01-13T20:01:34;29.60;;;10.30;;
33148;SDS011;19506;51.040;3.856;2023-01-13T20:04:04;32.53;;;12.25;;
33148;SDS011;19506;51.040;3.856;2023-01-13T20:06:37;39.38;;;13.05;;
33148;SDS011;19506;51.040;3.856;2023-01-13T20:09:07;33.97;;;12.40;;
33148;SDS011;19506;51.040;3.856;2023-01-13T20:11:32;29.83;;;12.23;;
33148;SDS011;19506;51.040;3.856;2023-01-13T20:13:59;31.10;;;10.43;;
33148;SDS011;19506;51.040;3.856;2023-01-13T20:16:26;30.35;;;12.15;;
33148;SDS011;19506;51.040;3.856;2023-01-13T20:18:52;31.50;;;10.93;;
33148;SDS011;19506;51.040;3.856;2023-01-13T20:21:18;27.08;;;10.80;;
33148;SDS011;19506;51.040;3.856;2023-01-13T20:23:47;35.33;;;12.30;;
33148;SDS011;19506;51.040;3.856;2023-01-13T20:26:14;31.13;;;10.27;;
33148;SDS011;19506;51.040;3.856;2023-01-13T20:28:40;25.73;;;10.68;;
33148;SDS011;19506;51.040;3.856;2023-01-13T20:31:06;31.63;;;10.65;;
33148;SDS011;19506;51.040;3.856;2023-01-13T20:33:33;26.30;;;9.85;;
33148;SDS011;19506;51.040;3.856;2023-01-13T20:36:00;24.45;;;9.40;;
33148;SDS011;19506;51.040;3.856;2023-01-13T20:38:26;32.75;;;10.98;;
33148;SDS011;19506;51.040;3.856;2023-01-13T20:40:58;25.17;;;8.85;;
33148;SDS011;19506;51.040;3.856;2023-01-13T20:43:25;25.20;;;8.75;;
33148;SDS011;19506;51.040;3.856;2023-01-13T20:45:52;22.63;;;8.93;;
33148;SDS011;19506;51.040;3.856;2023-01-13T20:48:18;26.92;;;9.35;;
33148;SDS011;19506;51.040;3.856;2023-01-13T20:50:50;22.50;;;9.07;;
33148;SDS011;19506;51.040;3.856;2023-01-13T20:53:18;25.25;;;8.68;;
33148;SDS011;19506;51.040;3.856;2023-01-13T20:55:43;21.83;;;9.15;;
33148;SDS011;19506;51.040;3.856;2023-01-13T20:58:09;25.40;;;9.13;;
33148;SDS011;19506;51.040;3.856;2023-01-13T21:00:35;26.27;;;9.82;;
33148;SDS011;19506;51.040;3.856;2023-01-13T21:03:00;18.42;;;8.50;;
33148;SDS011;19506;51.040;3.856;2023-01-13T21:05:26;20.55;;;8.18;;
33148;SDS011;19506;51.040;3.856;2023-01-13T21:07:53;23.38;;;8.65;;
33148;SDS011;19506;51.040;3.856;2023-01-13T21:10:19;33.55;;;10.40;;
33148;SDS011;19506;51.040;3.856;2023-01-13T21:12:44;17.50;;;7.78;;
33148;SDS011;19506;51.040;3.856;2023-01-13T21:15:28;23.40;;;8.60;;
33148;SDS011;19506;51.040;3.856;2023-01-13T21:17:54;21.00;;;9.02;;
33148;SDS011;19506;51.040;3.856;2023-01-13T21:20:38;22.27;;;8.60;;
33148;SDS011;19506;51.040;3.856;2023-01-13T21:23:04;25.33;;;8.23;;
33148;SDS011;19506;51.040;3.856;2023-01-13T21:25:30;20.35;;;7.75;;
33148;SDS011;19506;51.040;3.856;2023-01-13T21:27:56;29.00;;;8.57;;
33148;SDS011;19506;51.040;3.856;2023-01-13T21:30:30;18.70;;;7.72;;
33148;SDS011;19506;51.040;3.856;2023-01-13T21:32:56;19.50;;;7.72;;
33148;SDS011;19506;51.040;3.856;2023-01-13T21:35:22;26.33;;;8.00;;
33148;SDS011;19506;51.040;3.856;2023-01-13T21:37:47;16.75;;;7.22;;
33148;SDS011;19506;51.040;3.856;2023-01-13T21:40:13;20.05;;;8.18;;
33148;SDS011;19506;51.040;3.856;2023-01-13T21:42:39;22.50;;;7.55;;
33148;SDS011;19506;51.040;3.856;2023-01-13T21:45:24;17.05;;;7.65;;
33148;SDS011;19506;51.040;3.856;2023-01-13T21:48:08;21.70;;;7.60;;
33148;SDS011;19506;51.040;3.856;2023-01-13T21:50:34;19.65;;;7.80;;
33148;SDS011;19506;51.040;3.856;2023-01-13T21:53:02;16.90;;;7.30;;
33148;SDS011;19506;51.040;3.856;2023-01-13T21:55:28;20.25;;;8.48;;
33148;SDS011;19506;51.040;3.856;2023-01-13T21:57:55;16.83;;;7.18;;
33148;SDS011;19506;51.040;3.856;2023-01-13T22:00:24;16.17;;;7.82;;
33148;SDS011;19506;51.040;3.856;2023-01-13T22:02:51;20.73;;;7.25;;
33148;SDS011;19506;51.040;3.856;2023-01-13T22:05:18;17.80;;;6.70;;
33148;SDS011;19506;51.040;3.856;2023-01-13T22:07:45;17.23;;;7.13;;
33148;SDS011;19506;51.040;3.856;2023-01-13T22:10:15;16.05;;;6.85;;
33148;SDS011;19506;51.040;3.856;2023-01-13T22:12:51;16.92;;;7.32;;
33148;SDS011;19506;51.040;3.856;2023-01-13T22:15:18;15.45;;;6.20;;
33148;SDS011;19506;51.040;3.856;2023-01-13T22:17:43;18.45;;;7.70;;
33148;SDS011;19506;51.040;3.856;2023-01-13T22:20:12;16.13;;;7.32;;
33148;SDS011;19506;51.040;3.856;2023-01-13T22:25:04;14.55;;;6.47;;
33148;SDS011;19506;51.040;3.856;2023-01-13T22:27:32;15.43;;;6.43;;
33148;SDS011;19506;51.040;3.856;2023-01-13T22:30:04;16.58;;;6.10;;
33148;SDS011;19506;51.040;3.856;2023-01-13T22:32:33;13.48;;;5.70;;
33148;SDS011;19506;51.040;3.856;2023-01-13T22:35:00;14.60;;;5.85;;
33148;SDS011;19506;51.040;3.856;2023-01-13T22:37:26;15.13;;;5.97;;
33148;SDS011;19506;51.040;3.856;2023-01-13T22:39:52;17.33;;;6.97;;
33148;SDS011;19506;51.040;3.856;2023-01-13T22:42:18;12.27;;;6.28;;
33148;SDS011;19506;51.040;3.856;2023-01-13T22:44:43;16.45;;;6.63;;
33148;SDS011;19506;51.040;3.856;2023-01-13T22:47:09;12.38;;;6.25;;
33148;SDS011;19506;51.040;3.856;2023-01-13T22:49:34;14.98;;;7.00;;
33148;SDS011;19506;51.040;3.856;2023-01-13T22:52:00;16.65;;;7.10;;
33148;SDS011;19506;51.040;3.856;2023-01-13T22:56:51;18.48;;;7.57;;
33148;SDS011;19506;51.040;3.856;2023-01-13T22:59:17;13.77;;;6.43;;
33148;SDS011;19506;51.040;3.856;2023-01-13T23:01:43;13.75;;;5.90;;
33148;SDS011;19506;51.040;3.856;2023-01-13T23:04:09;15.30;;;5.72;;
33148;SDS011;19506;51.040;3.856;2023-01-13T23:06:39;16.73;;;6.18;;
33148;SDS011;19506;51.040;3.856;2023-01-13T23:09:05;12.73;;;6.47;;
33148;SDS011;19506;51.040;3.856;2023-01-13T23:11:31;13.95;;;6.55;;
33148;SDS011;19506;51.040;3.856;2023-01-13T23:13:58;15.52;;;6.72;;
33148;SDS011;19506;51.040;3.856;2023-01-13T23:16:28;14.50;;;5.60;;
33148;SDS011;19506;51.040;3.856;2023-01-13T23:18:56;13.38;;;5.13;;
33148;SDS011;19506;51.040;3.856;2023-01-13T23:21:23;14.85;;;5.55;;
33148;SDS011;19506;51.040;3.856;2023-01-13T23:23:51;8.98;;;5.45;;
33148;SDS011;19506;51.040;3.856;2023-01-13T23:26:17;12.20;;;5.50;;
33148;SDS011;19506;51.040;3.856;2023-01-13T23:28:44;18.42;;;6.22;;
33148;SDS011;19506;51.040;3.856;2023-01-13T23:31:10;12.32;;;5.13;;
33148;SDS011;19506;51.040;3.856;2023-01-13T23:33:38;11.30;;;5.40;;
33148;SDS011;19506;51.040;3.856;2023-01-13T23:36:09;18.48;;;7.43;;
33148;SDS011;19506;51.040;3.856;2023-01-13T23:38:37;16.10;;;6.38;;
33148;SDS011;19506;51.040;3.856;2023-01-13T23:41:07;10.60;;;5.10;;
33148;SDS011;19506;51.040;3.856;2023-01-13T23:43:34;11.40;;;5.35;;
33148;SDS011;19506;51.040;3.856;2023-01-13T23:46:04;12.25;;;4.97;;
33148;SDS011;19506;51.040;3.856;2023-01-13T23:48:31;12.80;;;5.50;;
33148;SDS011;19506;51.040;3.856;2023-01-13T23:50:59;10.63;;;4.35;;
33148;SDS011;19506;51.040;3.856;2023-01-13T23:53:32;9.65;;;5.07;;
33148;SDS011;19506;51.040;3.856;2023-01-13T23:56:02;10.32;;;5.18;;
33148;SDS011;19506;51.040;3.856;2023-01-13T23:58:29;13.90;;;5.43;;
